createdAt,value
2023-01-01T00:00:13.546Z,62.40
2023-01-01T00:01:13.438Z,65.10
2023-01-01T00:02:13.449Z,71.50
2023-01-01T00:03:13.373Z,71.90
2023-01-01T00:04:13.361Z,69.80
2023-01-01T00:05:13.280Z,75.90
2023-01-01T00:06:13.231Z,76.80
2023-01-01T00:07:13.207Z,72.60
2023-01-01T00:08:13.162Z,71.10
2023-01-01T00:09:13.142Z,67.60
2023-01-01T00:10:13.095Z,68.30
2023-01-01T00:11:13.059Z,59.50
2023-01-01T00:12:13.015Z,62.30
2023-01-01T00:13:12.968Z,65.20
2023-01-01T00:14:12.949Z,61.30
2023-01-01T00:15:12.884Z,60.00
2023-01-01T00:16:12.899Z,57.40
2023-01-01T00:17:12.808Z,54.80
2023-01-01T00:18:12.767Z,51.20
2023-01-01T00:19:12.727Z,51.10
2023-01-01T00:20:12.704Z,48.30
2023-01-01T00:21:12.663Z,45.30
2023-01-01T00:22:52.115Z,42.20
2023-01-01T00:23:12.571Z,42.50
2023-01-01T00:24:12.543Z,41.40
2023-01-01T00:25:12.501Z,41.20
2023-01-01T00:26:12.473Z,37.50
2023-01-01T00:27:12.428Z,34.60
2023-01-01T00:28:12.388Z,32.70
2023-01-01T00:29:12.345Z,30.80
2023-01-01T00:30:12.311Z,26.80
2023-01-01T00:31:12.266Z,23.30
2023-01-01T00:32:14.339Z,21.60
2023-01-01T00:33:12.202Z,22.70
2023-01-01T00:34:12.153Z,19.80
2023-01-01T00:35:12.114Z,20.70
2023-01-01T00:36:12.073Z,18.20
2023-01-01T00:37:12.036Z,19.10
2023-01-01T00:38:12.014Z,14.70
2023-01-01T00:39:11.962Z,16.20
2023-01-01T00:40:11.935Z,13.20
2023-01-01T00:41:11.888Z,15.00
2023-01-01T00:42:11.844Z,14.70
2023-01-01T00:43:11.803Z,14.40
2023-01-01T00:44:11.777Z,11.30
2023-01-01T00:45:17.097Z,14.00
2023-01-01T00:46:11.762Z,12.30
2023-01-01T00:47:11.659Z,11.70
2023-01-01T00:48:11.616Z,11.10
2023-01-01T00:49:11.574Z,12.10
2023-01-01T00:50:11.545Z,10.40
2023-01-01T00:51:11.603Z,10.20
2023-01-01T00:52:11.455Z,10.40
2023-01-01T00:53:11.433Z,11.50
2023-01-01T00:54:11.382Z,7.20
2023-01-01T00:55:11.346Z,8.00
2023-01-01T00:56:11.318Z,8.10
2023-01-01T00:57:11.260Z,10.40
2023-01-01T00:58:11.225Z,9.60
2023-01-01T00:59:11.185Z,9.40
2023-01-01T01:00:11.156Z,7.40
2023-01-01T01:01:11.183Z,6.90
2023-01-01T01:02:11.262Z,10.00
2023-01-01T01:03:11.066Z,7.80
2023-01-01T01:04:10.997Z,9.80
2023-01-01T01:05:10.980Z,9.40
2023-01-01T01:06:10.914Z,8.60
2023-01-01T01:07:10.881Z,7.40
2023-01-01T01:08:10.850Z,9.70
2023-01-01T01:09:10.801Z,8.00
2023-01-01T01:10:10.770Z,7.60
2023-01-01T01:11:10.728Z,9.40
2023-01-01T01:12:17.925Z,6.00
2023-01-01T01:13:10.645Z,8.70
2023-01-01T01:14:10.621Z,11.40
2023-01-01T01:15:10.572Z,6.60
2023-01-01T01:16:10.535Z,8.10
2023-01-01T01:17:10.492Z,8.30
2023-01-01T01:18:10.457Z,7.90
2023-01-01T01:19:10.418Z,7.50
2023-01-01T01:20:10.389Z,7.80
2023-01-01T01:21:10.359Z,7.00
2023-01-01T01:22:10.320Z,7.90
2023-01-01T01:23:10.265Z,9.40
2023-01-01T01:24:10.229Z,8.20
2023-01-01T01:25:10.181Z,10.80
2023-01-01T01:26:10.164Z,8.90
2023-01-01T01:27:10.108Z,8.50
2023-01-01T01:28:10.069Z,9.80
2023-01-01T01:29:10.029Z,9.10
2023-01-01T01:30:10.000Z,9.70
2023-01-01T01:31:10.004Z,8.10
2023-01-01T01:32:09.928Z,9.00
2023-01-01T01:33:09.876Z,7.90
2023-01-01T01:34:15.384Z,7.00
2023-01-01T01:35:09.794Z,9.00
2023-01-01T01:36:09.760Z,8.70
2023-01-01T01:37:09.736Z,9.50
2023-01-01T01:38:09.707Z,10.50
2023-01-01T01:39:09.643Z,8.60
2023-01-01T01:40:09.611Z,7.50
2023-01-01T01:41:20.271Z,9.40
2023-01-01T01:42:09.527Z,6.90
2023-01-01T01:43:09.496Z,8.70
2023-01-01T01:44:09.470Z,8.20
2023-01-01T01:45:09.420Z,8.40
2023-01-01T01:46:09.401Z,7.00
2023-01-01T01:47:09.339Z,7.20
2023-01-01T01:48:09.297Z,7.20
2023-01-01T01:49:09.268Z,7.00
2023-01-01T01:50:09.223Z,6.60
2023-01-01T01:51:09.178Z,7.40
2023-01-01T01:52:09.143Z,9.90
2023-01-01T01:53:09.104Z,10.60
2023-01-01T01:54:09.064Z,9.70
2023-01-01T01:55:09.034Z,11.40
2023-01-01T01:56:08.993Z,9.60
2023-01-01T01:57:08.948Z,8.70
2023-01-01T01:58:08.914Z,7.60
2023-01-01T01:59:08.874Z,9.00
2023-01-01T02:00:10.879Z,9.00
2023-01-01T02:01:08.905Z,10.00
2023-01-01T02:02:08.902Z,6.80
2023-01-01T02:03:08.775Z,7.60
2023-01-01T02:04:08.683Z,7.80
2023-01-01T02:05:08.646Z,5.70
2023-01-01T02:06:08.598Z,5.80
2023-01-01T02:07:08.580Z,7.20
2023-01-01T02:08:08.527Z,6.00
2023-01-01T02:09:08.495Z,4.80
2023-01-01T02:10:08.451Z,4.80
2023-01-01T02:11:08.410Z,6.40
2023-01-01T02:12:08.385Z,4.50
2023-01-01T02:13:08.328Z,4.60
2023-01-01T02:14:08.292Z,6.20
2023-01-01T02:15:08.251Z,5.20
2023-01-01T02:16:08.248Z,6.10
2023-01-01T02:17:08.179Z,5.60
2023-01-01T02:18:08.148Z,3.50
2023-01-01T02:19:08.111Z,4.90
2023-01-01T02:20:08.060Z,4.50
2023-01-01T02:21:08.016Z,5.00
2023-01-01T02:22:07.987Z,4.60
2023-01-01T02:23:07.941Z,3.00
2023-01-01T02:24:07.915Z,4.80
2023-01-01T02:25:07.879Z,5.00
2023-01-01T02:26:07.844Z,3.60
2023-01-01T02:27:07.792Z,4.20
2023-01-01T02:28:07.747Z,5.30
2023-01-01T02:29:07.716Z,3.80
2023-01-01T02:30:07.673Z,3.90
2023-01-01T02:31:07.689Z,3.60
2023-01-01T02:32:07.591Z,4.90
2023-01-01T02:33:07.553Z,3.80
2023-01-01T02:34:07.519Z,3.60
2023-01-01T02:35:07.476Z,4.60
2023-01-01T02:36:07.455Z,4.20
2023-01-01T02:37:07.409Z,5.10
2023-01-01T02:38:07.364Z,4.60
2023-01-01T02:39:07.320Z,4.30
2023-01-01T02:40:07.282Z,4.20
2023-01-01T02:41:07.255Z,4.80
2023-01-01T02:42:07.218Z,4.00
2023-01-01T02:43:07.162Z,3.40
2023-01-01T02:44:07.132Z,4.10
2023-01-01T02:45:07.091Z,2.70
2023-01-01T02:46:07.085Z,4.40
2023-01-01T02:47:07.008Z,2.90
2023-01-01T02:48:06.976Z,4.90
2023-01-01T02:49:10.407Z,4.80
2023-01-01T02:50:06.896Z,5.60
2023-01-01T02:51:06.868Z,4.30
2023-01-01T02:52:06.838Z,4.40
2023-01-01T02:53:06.788Z,4.60
2023-01-01T02:54:06.740Z,4.00
2023-01-01T02:55:06.703Z,3.10
2023-01-01T02:56:06.666Z,5.80
2023-01-01T02:57:06.630Z,4.40
2023-01-01T02:58:06.597Z,3.20
2023-01-01T02:59:06.583Z,4.30
2023-01-01T03:00:06.526Z,3.90
2023-01-01T03:01:06.484Z,4.30
2023-01-01T03:02:06.508Z,3.50
2023-01-01T03:03:06.501Z,5.00
2023-01-01T03:04:06.361Z,3.20
2023-01-01T03:05:06.325Z,3.60
2023-01-01T03:06:06.273Z,2.50
2023-01-01T03:07:06.240Z,5.10
2023-01-01T03:08:06.199Z,5.10
2023-01-01T03:09:06.165Z,4.00
2023-01-01T03:10:06.121Z,3.30
2023-01-01T03:11:06.084Z,2.80
2023-01-01T03:12:06.041Z,4.60
2023-01-01T03:13:06.006Z,3.90
2023-01-01T03:14:05.972Z,4.60
2023-01-01T03:15:05.926Z,3.80
2023-01-01T03:16:05.981Z,3.30
2023-01-01T03:17:05.858Z,3.80
2023-01-01T03:18:05.809Z,4.40
2023-01-01T03:19:05.770Z,4.20
2023-01-01T03:20:05.741Z,3.60
2023-01-01T03:21:05.693Z,6.10
2023-01-01T03:22:05.657Z,3.30
2023-01-01T03:23:05.621Z,4.50
2023-01-01T03:24:05.574Z,3.20
2023-01-01T03:25:05.551Z,4.50
2023-01-01T03:26:05.513Z,4.20
2023-01-01T03:27:05.459Z,3.70
2023-01-01T03:28:05.421Z,5.40
2023-01-01T03:29:05.378Z,3.20
2023-01-01T03:30:05.353Z,6.20
2023-01-01T03:31:05.332Z,3.60
2023-01-01T03:32:05.274Z,3.30
2023-01-01T03:33:05.233Z,5.50
2023-01-01T03:34:05.195Z,5.30
2023-01-01T03:35:05.143Z,4.40
2023-01-01T03:36:05.118Z,3.50
2023-01-01T03:37:05.070Z,5.20
2023-01-01T03:38:05.039Z,4.00
2023-01-01T03:39:04.989Z,3.10
2023-01-01T03:40:04.955Z,4.80
2023-01-01T03:41:04.951Z,3.90
2023-01-01T03:42:04.877Z,2.60
2023-01-01T03:43:04.835Z,4.60
2023-01-01T03:44:04.802Z,3.80
2023-01-01T03:45:04.775Z,7.00
2023-01-01T03:46:04.716Z,4.30
2023-01-01T03:47:04.715Z,3.70
2023-01-01T03:48:04.642Z,4.80
2023-01-01T03:49:04.806Z,4.80
2023-01-01T03:50:04.563Z,4.00
2023-01-01T03:51:04.527Z,4.40
2023-01-01T03:52:04.500Z,2.60
2023-01-01T03:53:04.453Z,5.20
2023-01-01T03:54:04.419Z,5.10
2023-01-01T03:55:04.381Z,6.10
2023-01-01T03:56:04.332Z,4.00
2023-01-01T03:57:04.292Z,4.30
2023-01-01T03:58:04.252Z,5.10
2023-01-01T03:59:04.221Z,3.80
2023-01-01T04:00:04.192Z,3.60
2023-01-01T04:01:04.197Z,5.70
2023-01-01T04:02:04.244Z,4.10
2023-01-01T04:03:04.096Z,5.00
2023-01-01T04:04:04.019Z,4.60
2023-01-01T04:05:03.990Z,5.20
2023-01-01T04:06:03.941Z,2.80
2023-01-01T04:07:14.648Z,4.60
2023-01-01T04:08:03.863Z,4.40
2023-01-01T04:09:03.836Z,3.40
2023-01-01T04:10:03.783Z,3.30
2023-01-01T04:11:03.743Z,4.10
2023-01-01T04:12:03.714Z,4.60
2023-01-01T04:13:03.665Z,3.60
2023-01-01T04:14:03.636Z,4.50
2023-01-01T04:15:03.599Z,3.00
2023-01-01T04:16:03.583Z,4.80
2023-01-01T04:17:03.511Z,6.40
2023-01-01T04:18:03.473Z,4.70
2023-01-01T04:19:03.432Z,5.10
2023-01-01T04:20:03.391Z,5.70
2023-01-01T04:21:03.373Z,5.40
2023-01-01T04:22:03.321Z,3.90
2023-01-01T04:23:03.279Z,7.10
2023-01-01T04:24:03.263Z,3.90
2023-01-01T04:25:03.200Z,3.50
2023-01-01T04:26:03.168Z,4.60
2023-01-01T04:27:03.135Z,3.30
2023-01-01T04:28:03.087Z,3.40
2023-01-01T04:29:03.049Z,3.60
2023-01-01T04:30:03.009Z,5.70
2023-01-01T04:31:02.972Z,5.20
2023-01-01T04:32:02.943Z,4.20
2023-01-01T04:33:02.892Z,4.00
2023-01-01T04:34:02.849Z,3.30
2023-01-01T04:35:02.813Z,3.40
2023-01-01T04:36:02.779Z,4.10
2023-01-01T04:37:05.747Z,6.10
2023-01-01T04:38:02.710Z,4.10
2023-01-01T04:39:02.667Z,5.30
2023-01-01T04:40:02.632Z,3.80
2023-01-01T04:41:02.582Z,2.70
2023-01-01T04:42:02.539Z,5.90
2023-01-01T04:43:02.520Z,3.90
2023-01-01T04:44:02.477Z,3.40
2023-01-01T04:45:02.423Z,4.70
2023-01-01T04:46:02.453Z,5.00
2023-01-01T04:47:02.346Z,4.10
2023-01-01T04:48:02.302Z,4.90
2023-01-01T04:49:02.276Z,4.80
2023-01-01T04:50:02.237Z,6.30
2023-01-01T04:51:02.210Z,3.50
2023-01-01T04:52:02.164Z,5.20
2023-01-01T04:53:02.118Z,4.20
2023-01-01T04:54:02.071Z,5.30
2023-01-01T04:55:02.034Z,6.50
2023-01-01T04:56:01.997Z,3.70
2023-01-01T04:57:01.969Z,4.90
2023-01-01T04:58:01.936Z,5.40
2023-01-01T04:59:01.880Z,3.90
2023-01-01T05:00:01.869Z,4.10
2023-01-01T05:01:01.900Z,3.60
2023-01-01T05:02:01.978Z,3.90
2023-01-01T05:03:01.783Z,5.40
2023-01-01T05:04:01.711Z,5.30
2023-01-01T05:05:01.652Z,5.50
2023-01-01T05:06:01.601Z,4.20
2023-01-01T05:07:01.572Z,5.10
2023-01-01T05:08:01.527Z,4.10
2023-01-01T05:09:01.488Z,8.00
2023-01-01T05:10:01.462Z,3.60
2023-01-01T05:11:01.419Z,5.10
2023-01-01T05:12:01.380Z,6.50
2023-01-01T05:13:01.343Z,4.50
2023-01-01T05:14:01.297Z,3.90
2023-01-01T05:15:01.269Z,5.70
2023-01-01T05:16:01.265Z,4.80
2023-01-01T05:17:01.194Z,5.30
2023-01-01T05:18:01.139Z,6.40
2023-01-01T05:19:01.112Z,3.40
2023-01-01T05:20:01.078Z,3.50
2023-01-01T05:21:01.043Z,3.70
2023-01-01T05:22:11.207Z,4.30
2023-01-01T05:23:00.944Z,4.50
2023-01-01T05:24:00.908Z,4.60
2023-01-01T05:25:00.863Z,4.40
2023-01-01T05:26:00.827Z,3.90
2023-01-01T05:27:00.800Z,4.90
2023-01-01T05:28:00.755Z,3.70
2023-01-01T05:29:00.720Z,3.50
2023-01-01T05:30:00.673Z,5.80
2023-01-01T05:31:00.643Z,3.60
2023-01-01T05:32:00.637Z,4.90
2023-01-01T05:33:00.553Z,6.50
2023-01-01T05:34:21.533Z,4.50
2023-01-01T05:35:00.475Z,5.00
2023-01-01T05:36:00.443Z,4.20
2023-01-01T05:37:00.398Z,3.70
2023-01-01T05:38:00.358Z,3.80
2023-01-01T05:39:00.331Z,3.90
2023-01-01T05:40:00.277Z,4.50
2023-01-01T05:41:00.241Z,4.00
2023-01-01T05:42:00.203Z,4.00
2023-01-01T05:43:00.165Z,4.60
2023-01-01T05:44:00.123Z,4.80
2023-01-01T05:45:00.111Z,3.40
2023-01-01T05:46:00.081Z,4.60
2023-01-01T05:47:00.013Z,5.10
2023-01-01T05:47:59.973Z,4.20
2023-01-01T05:48:59.959Z,3.30
2023-01-01T05:49:59.890Z,4.80
2023-01-01T05:50:59.861Z,4.40
2023-01-01T05:51:59.818Z,3.60
2023-01-01T05:53:00.643Z,4.30
2023-01-01T05:53:59.738Z,4.70
2023-01-01T05:54:59.691Z,5.00
2023-01-01T05:55:59.658Z,4.90
2023-01-01T05:56:59.627Z,3.40
2023-01-01T05:57:59.577Z,4.60
2023-01-01T05:58:59.543Z,5.10
2023-01-01T05:59:59.499Z,8.10
2023-01-01T06:00:59.487Z,4.40
2023-01-01T06:01:59.517Z,5.70
2023-01-01T06:02:59.422Z,6.30
2023-01-01T06:03:59.451Z,3.80
2023-01-01T06:04:59.304Z,4.40
2023-01-01T06:05:59.266Z,5.70
2023-01-01T06:06:59.224Z,5.30
2023-01-01T06:07:59.190Z,5.40
2023-01-01T06:08:59.155Z,4.30
2023-01-01T06:09:59.108Z,5.50
2023-01-01T06:10:59.067Z,3.80
2023-01-01T06:11:59.031Z,3.80
2023-01-01T06:12:58.995Z,4.70
2023-01-01T06:13:58.967Z,4.30
2023-01-01T06:14:58.907Z,7.00
2023-01-01T06:15:58.872Z,3.70
2023-01-01T06:16:58.891Z,3.60
2023-01-01T06:17:58.801Z,6.00
2023-01-01T06:18:58.758Z,5.20
2023-01-01T06:19:58.729Z,3.90
2023-01-01T06:20:58.686Z,5.60
2023-01-01T06:21:58.649Z,5.80
2023-01-01T06:22:58.613Z,6.00
2023-01-01T06:23:58.588Z,6.70
2023-01-01T06:24:58.521Z,3.50
2023-01-01T06:25:58.483Z,6.30
2023-01-01T06:26:58.444Z,4.50
2023-01-01T06:27:58.406Z,5.00
2023-01-01T06:28:58.377Z,4.40
2023-01-01T06:29:58.329Z,4.20
2023-01-01T06:30:58.351Z,6.20
2023-01-01T06:31:58.251Z,4.20
2023-01-01T06:32:59.137Z,4.40
2023-01-01T06:33:58.172Z,3.50
2023-01-01T06:34:58.150Z,5.30
2023-01-01T06:35:58.094Z,3.60
2023-01-01T06:37:03.036Z,4.70
2023-01-01T06:37:58.023Z,6.00
2023-01-01T06:38:57.978Z,5.20
2023-01-01T06:39:57.945Z,4.60
2023-01-01T06:40:57.914Z,4.30
2023-01-01T06:41:57.868Z,5.40
2023-01-01T06:42:57.818Z,4.10
2023-01-01T06:43:57.784Z,4.20
2023-01-01T06:44:57.739Z,7.40
2023-01-01T06:45:57.700Z,5.80
2023-01-01T06:46:57.689Z,6.80
2023-01-01T06:47:57.625Z,4.90
2023-01-01T06:48:57.587Z,3.50
2023-01-01T06:49:57.549Z,3.60
2023-01-01T06:50:57.501Z,5.90
2023-01-01T06:51:57.469Z,5.50
2023-01-01T06:52:57.476Z,4.80
2023-01-01T06:53:57.391Z,3.40
2023-01-01T06:54:57.347Z,4.60
2023-01-01T06:55:57.679Z,4.90
2023-01-01T06:56:57.271Z,5.30
2023-01-01T06:57:57.235Z,6.60
2023-01-01T06:58:57.213Z,3.90
2023-01-01T06:59:57.186Z,4.20
2023-01-01T07:00:57.132Z,5.60
2023-01-01T07:01:57.166Z,4.50
2023-01-01T07:02:57.183Z,4.40
2023-01-01T07:03:56.996Z,5.00
2023-01-01T07:04:56.962Z,5.20
2023-01-01T07:05:56.933Z,4.20
2023-01-01T07:06:56.882Z,4.20
2023-01-01T07:07:56.854Z,7.40
2023-01-01T07:08:56.812Z,5.20
2023-01-01T07:09:56.770Z,3.70
2023-01-01T07:10:56.721Z,4.50
2023-01-01T07:11:56.701Z,4.40
2023-01-01T07:12:56.652Z,4.30
2023-01-01T07:13:56.619Z,4.10
2023-01-01T07:14:56.570Z,5.40
2023-01-01T07:15:56.573Z,5.50
2023-01-01T07:16:56.505Z,4.00
2023-01-01T07:17:56.457Z,5.70
2023-01-01T07:18:56.416Z,5.40
2023-01-01T07:19:56.377Z,4.30
2023-01-01T07:20:56.340Z,4.10
2023-01-01T07:21:56.299Z,4.30
2023-01-01T07:22:56.270Z,7.10
2023-01-01T07:23:56.234Z,5.50
2023-01-01T07:24:56.181Z,5.40
2023-01-01T07:25:56.159Z,6.30
2023-01-01T07:26:56.107Z,4.10
2023-01-01T07:27:56.068Z,4.60
2023-01-01T07:29:02.546Z,6.50
2023-01-01T07:29:56.003Z,4.10
2023-01-01T07:30:56.030Z,4.50
2023-01-01T07:31:55.909Z,5.10
2023-01-01T07:32:55.931Z,6.90
2023-01-01T07:33:55.855Z,4.80
2023-01-01T07:34:55.801Z,4.70
2023-01-01T07:35:55.753Z,5.60
2023-01-01T07:36:55.709Z,6.00
2023-01-01T07:37:55.672Z,3.90
2023-01-01T07:38:55.643Z,5.40
2023-01-01T07:39:55.611Z,5.40
2023-01-01T07:40:55.562Z,5.50
2023-01-01T07:41:55.533Z,8.10
2023-01-01T07:42:55.482Z,4.30
2023-01-01T07:43:55.465Z,5.90
2023-01-01T07:44:55.401Z,5.10
2023-01-01T07:45:55.385Z,5.20
2023-01-01T07:46:55.374Z,5.40
2023-01-01T07:47:55.295Z,6.10
2023-01-01T07:48:55.249Z,5.50
2023-01-01T07:49:55.209Z,6.10
2023-01-01T07:50:55.161Z,6.80
2023-01-01T07:51:55.128Z,4.80
2023-01-01T07:52:55.122Z,5.20
2023-01-01T07:53:57.208Z,4.80
2023-01-01T07:54:55.008Z,3.80
2023-01-01T07:55:54.970Z,6.70
2023-01-01T07:56:54.938Z,5.80
2023-01-01T07:57:54.894Z,5.90
2023-01-01T07:58:54.855Z,4.50
2023-01-01T07:59:54.822Z,6.30
2023-01-01T08:00:54.780Z,3.90
2023-01-01T08:01:54.846Z,5.20
2023-01-01T08:02:54.773Z,6.80
2023-01-01T08:03:54.661Z,7.10
2023-01-01T08:04:54.615Z,7.40
2023-01-01T08:05:54.587Z,7.00
2023-01-01T08:06:54.534Z,6.40
2023-01-01T08:07:54.497Z,4.90
2023-01-01T08:08:54.455Z,7.30
2023-01-01T08:09:54.426Z,5.60
2023-01-01T08:10:57.678Z,5.50
2023-01-01T08:11:54.359Z,5.30
2023-01-01T08:12:54.298Z,5.20
2023-01-01T08:13:54.266Z,4.30
2023-01-01T08:14:54.220Z,5.80
2023-01-01T08:15:54.205Z,6.00
2023-01-01T08:16:54.142Z,5.50
2023-01-01T08:17:54.119Z,5.30
2023-01-01T08:18:54.066Z,7.70
2023-01-01T08:19:54.043Z,6.70
2023-01-01T08:20:53.990Z,6.20
2023-01-01T08:21:53.945Z,6.50
2023-01-01T08:22:53.906Z,5.20
2023-01-01T08:23:53.879Z,5.30
2023-01-01T08:24:53.830Z,6.40
2023-01-01T08:25:53.803Z,5.10
2023-01-01T08:26:53.749Z,5.80
2023-01-01T08:27:53.713Z,5.90
2023-01-01T08:28:57.331Z,6.10
2023-01-01T08:29:53.643Z,4.70
2023-01-01T08:30:53.632Z,6.80
2023-01-01T08:31:53.555Z,6.20
2023-01-01T08:32:53.516Z,5.70
2023-01-01T08:33:53.475Z,7.40
2023-01-01T08:34:53.435Z,4.90
2023-01-01T08:35:54.529Z,6.90
2023-01-01T08:36:53.375Z,5.20
2023-01-01T08:37:53.324Z,4.70
2023-01-01T08:38:53.289Z,4.50
2023-01-01T08:39:53.244Z,7.00
2023-01-01T08:40:53.198Z,6.70
2023-01-01T08:41:53.163Z,7.70
2023-01-01T08:42:53.128Z,7.90
2023-01-01T08:43:53.253Z,5.60
2023-01-01T08:44:53.044Z,4.10
2023-01-01T08:45:53.005Z,7.10
2023-01-01T08:46:53.044Z,5.20
2023-01-01T08:47:52.926Z,5.00
2023-01-01T08:48:52.896Z,4.90
2023-01-01T08:49:52.928Z,6.40
2023-01-01T08:50:52.804Z,5.20
2023-01-01T08:51:52.770Z,7.60
2023-01-01T08:52:52.736Z,5.30
2023-01-01T08:53:52.691Z,6.20
2023-01-01T08:54:52.675Z,6.30
2023-01-01T08:55:52.613Z,7.30
2023-01-01T08:56:52.577Z,6.20
2023-01-01T08:57:52.548Z,5.60
2023-01-01T08:58:52.525Z,6.90
2023-01-01T08:59:52.456Z,5.80
2023-01-01T09:00:52.433Z,6.10
2023-01-01T09:01:52.570Z,6.80
2023-01-01T09:02:52.514Z,6.50
2023-01-01T09:03:52.315Z,5.80
2023-01-01T09:04:52.266Z,4.10
2023-01-01T09:05:52.219Z,6.30
2023-01-01T09:06:52.196Z,5.80
2023-01-01T09:07:52.142Z,5.00
2023-01-01T09:08:52.104Z,6.50
2023-01-01T09:09:52.065Z,6.90
2023-01-01T09:10:52.026Z,5.30
2023-01-01T09:11:51.983Z,6.30
2023-01-01T09:12:51.964Z,6.70
2023-01-01T09:13:51.937Z,5.00
2023-01-01T09:14:51.874Z,5.20
2023-01-01T09:15:51.876Z,6.20
2023-01-01T09:16:51.855Z,5.20
2023-01-01T09:17:51.767Z,4.60
2023-01-01T09:18:51.732Z,6.60
2023-01-01T09:19:51.672Z,6.60
2023-01-01T09:20:51.635Z,5.60
2023-01-01T09:21:51.621Z,5.40
2023-01-01T09:22:51.558Z,6.20
2023-01-01T09:23:51.518Z,4.80
2023-01-01T09:24:51.493Z,4.00
2023-01-01T09:25:51.439Z,7.20
2023-01-01T09:26:51.401Z,4.20
2023-01-01T09:27:51.362Z,5.40
2023-01-01T09:28:51.321Z,7.60
2023-01-01T09:29:51.286Z,5.60
2023-01-01T09:30:51.263Z,5.60
2023-01-01T09:31:51.245Z,5.90
2023-01-01T09:32:51.178Z,6.10
2023-01-01T09:33:51.129Z,7.80
2023-01-01T09:34:52.707Z,5.40
2023-01-01T09:35:51.048Z,5.60
2023-01-01T09:36:51.018Z,5.60
2023-01-01T09:37:50.971Z,7.10
2023-01-01T09:38:50.959Z,6.10
2023-01-01T09:39:50.911Z,7.30
2023-01-01T09:40:51.580Z,7.20
2023-01-01T09:41:50.815Z,4.70
2023-01-01T09:42:50.776Z,6.00
2023-01-01T09:43:50.744Z,5.10
2023-01-01T09:44:50.698Z,4.70
2023-01-01T09:45:50.739Z,5.70
2023-01-01T09:46:50.621Z,5.90
2023-01-01T09:47:50.582Z,5.60
2023-01-01T09:48:50.549Z,6.30
2023-01-01T09:49:50.506Z,5.30
2023-01-01T09:50:50.476Z,5.60
2023-01-01T09:51:57.534Z,5.70
2023-01-01T09:52:50.402Z,7.50
2023-01-01T09:53:50.356Z,6.70
2023-01-01T09:54:50.314Z,6.10
2023-01-01T09:55:50.276Z,6.20
2023-01-01T09:56:50.252Z,5.70
2023-01-01T09:57:50.195Z,8.90
2023-01-01T09:58:50.162Z,5.50
2023-01-01T09:59:50.116Z,6.60
2023-01-01T10:00:50.117Z,5.60
2023-01-01T10:01:50.160Z,6.50
2023-01-01T10:02:53.607Z,4.80
2023-01-01T10:03:49.977Z,6.80
2023-01-01T10:04:49.925Z,5.60
2023-01-01T10:05:49.889Z,5.50
2023-01-01T10:06:49.848Z,6.20
2023-01-01T10:07:49.810Z,5.50
2023-01-01T10:08:49.781Z,4.80
2023-01-01T10:09:49.737Z,4.40
2023-01-01T10:10:49.702Z,5.00
2023-01-01T10:11:49.651Z,6.60
2023-01-01T10:12:49.628Z,6.40
2023-01-01T10:13:49.589Z,6.70
2023-01-01T10:14:49.539Z,5.60
2023-01-01T10:15:49.498Z,5.40
2023-01-01T10:16:49.478Z,6.60
2023-01-01T10:17:49.421Z,5.00
2023-01-01T10:18:49.395Z,4.90
2023-01-01T10:19:49.354Z,6.70
2023-01-01T10:20:49.303Z,5.20
2023-01-01T10:21:49.266Z,5.50
2023-01-01T10:22:49.232Z,6.20
2023-01-01T10:23:49.188Z,4.60
2023-01-01T10:24:49.148Z,6.20
2023-01-01T10:25:49.124Z,6.00
2023-01-01T10:26:49.078Z,5.60
2023-01-01T10:27:53.849Z,7.50
2023-01-01T10:28:48.997Z,5.10
2023-01-01T10:29:48.953Z,4.50
2023-01-01T10:30:48.928Z,5.40
2023-01-01T10:31:48.941Z,4.80
2023-01-01T10:32:48.849Z,5.10
2023-01-01T10:33:48.798Z,5.30
2023-01-01T10:34:48.762Z,6.70
2023-01-01T10:35:48.726Z,5.60
2023-01-01T10:36:48.687Z,6.60
2023-01-01T10:37:48.668Z,5.40
2023-01-01T10:38:48.615Z,7.20
2023-01-01T10:39:48.571Z,6.80
2023-01-01T10:40:48.536Z,7.20
2023-01-01T10:41:48.513Z,6.80
2023-01-01T10:42:48.449Z,8.40
2023-01-01T10:43:48.425Z,5.70
2023-01-01T10:44:48.385Z,5.00
2023-01-01T10:45:48.407Z,5.10
2023-01-01T10:46:48.298Z,5.70
2023-01-01T10:47:48.261Z,5.10
2023-01-01T10:48:48.220Z,8.00
2023-01-01T10:49:48.190Z,6.20
2023-01-01T10:50:48.152Z,7.80
2023-01-01T10:51:48.112Z,5.70
2023-01-01T10:52:48.067Z,6.60
2023-01-01T10:53:48.027Z,6.30
2023-01-01T10:54:47.990Z,7.00
2023-01-01T10:55:47.977Z,6.30
2023-01-01T10:56:47.919Z,6.10
2023-01-01T10:57:47.887Z,5.30
2023-01-01T10:58:47.839Z,6.90
2023-01-01T10:59:53.781Z,4.60
2023-01-01T11:00:47.836Z,4.60
2023-01-01T11:01:47.815Z,6.40
2023-01-01T11:02:47.764Z,6.80
2023-01-01T11:03:47.638Z,6.10
2023-01-01T11:04:47.604Z,6.20
2023-01-01T11:05:47.563Z,6.50
2023-01-01T11:06:47.538Z,6.50
2023-01-01T11:07:47.486Z,6.70
2023-01-01T11:08:47.448Z,5.60
2023-01-01T11:10:02.164Z,6.40
2023-01-01T11:10:47.368Z,5.60
2023-01-01T11:11:47.339Z,5.70
2023-01-01T11:13:04.890Z,6.80
2023-01-01T11:13:47.252Z,6.60
2023-01-01T11:14:47.220Z,5.50
2023-01-01T11:15:47.174Z,9.00
2023-01-01T11:16:47.210Z,6.90
2023-01-01T11:17:47.183Z,5.40
2023-01-01T11:18:47.068Z,6.00
2023-01-01T11:19:51.298Z,6.70
2023-01-01T11:20:47.006Z,6.20
2023-01-01T11:21:46.950Z,5.00
2023-01-01T11:22:55.779Z,5.40
2023-01-01T11:23:46.879Z,7.00
2023-01-01T11:24:46.841Z,5.70
2023-01-01T11:25:46.787Z,7.20
2023-01-01T11:26:54.007Z,7.30
2023-01-01T11:27:46.708Z,9.00
2023-01-01T11:28:46.671Z,6.40
2023-01-01T11:29:46.645Z,5.40
2023-01-01T11:30:46.615Z,6.30
2023-01-01T11:31:46.550Z,6.00
2023-01-01T11:32:50.532Z,4.80
2023-01-01T11:33:46.487Z,6.30
2023-01-01T11:34:46.434Z,6.00
2023-01-01T11:35:46.407Z,6.40
2023-01-01T11:36:46.409Z,5.50
2023-01-01T11:37:46.319Z,7.40
2023-01-01T11:38:46.283Z,5.80
2023-01-01T11:39:46.248Z,6.60
2023-01-01T11:40:46.203Z,7.40
2023-01-01T11:41:46.187Z,7.10
2023-01-01T11:42:46.146Z,6.90
2023-01-01T11:43:46.092Z,6.00
2023-01-01T11:44:46.070Z,8.10
2023-01-01T11:45:46.155Z,4.00
2023-01-01T11:46:45.977Z,8.10
2023-01-01T11:47:45.953Z,5.60
2023-01-01T11:48:45.897Z,5.90
2023-01-01T11:49:45.857Z,6.70
2023-01-01T11:50:51.924Z,6.80
2023-01-01T11:51:45.775Z,7.90
2023-01-01T11:52:45.748Z,8.80
2023-01-01T11:53:45.733Z,17.60
2023-01-01T11:54:45.661Z,6.60
2023-01-01T11:55:45.624Z,15.90
2023-01-01T11:56:45.589Z,8.60
2023-01-01T11:57:45.544Z,7.70
2023-01-01T11:58:45.551Z,6.50
2023-01-01T11:59:45.486Z,6.20
2023-01-01T12:00:45.432Z,8.00
2023-01-01T12:01:45.434Z,7.40
2023-01-01T12:02:45.387Z,6.20
2023-01-01T12:03:45.457Z,6.40
2023-01-01T12:04:45.278Z,5.80
2023-01-01T12:05:45.248Z,8.70
2023-01-01T12:06:45.195Z,4.80
2023-01-01T12:07:45.155Z,6.30
2023-01-01T12:08:45.122Z,6.00
2023-01-01T12:09:45.103Z,6.90
2023-01-01T12:10:45.043Z,7.30
2023-01-01T12:11:45.016Z,6.70
2023-01-01T12:12:44.972Z,6.50
2023-01-01T12:13:44.930Z,7.40
2023-01-01T12:14:44.889Z,6.40
2023-01-01T12:15:44.902Z,5.80
2023-01-01T12:16:44.810Z,6.90
2023-01-01T12:17:44.770Z,5.50
2023-01-01T12:18:44.736Z,7.20
2023-01-01T12:19:44.708Z,6.90
2023-01-01T12:20:44.669Z,7.80
2023-01-01T12:21:50.780Z,7.20
2023-01-01T12:22:44.581Z,7.20
2023-01-01T12:23:44.543Z,8.30
2023-01-01T12:24:44.504Z,8.90
2023-01-01T12:25:44.474Z,6.10
2023-01-01T12:26:44.426Z,6.40
2023-01-01T12:27:44.388Z,5.60
2023-01-01T12:28:44.363Z,7.60
2023-01-01T12:29:44.316Z,5.40
2023-01-01T12:30:44.272Z,6.10
2023-01-01T12:31:44.294Z,5.80
2023-01-01T12:32:44.193Z,7.50
2023-01-01T12:33:44.168Z,6.20
2023-01-01T12:34:44.115Z,6.40
2023-01-01T12:35:44.085Z,8.20
2023-01-01T12:36:44.055Z,6.50
2023-01-01T12:37:44.010Z,5.90
2023-01-01T12:38:43.961Z,6.10
2023-01-01T12:39:43.921Z,4.50
2023-01-01T12:40:43.896Z,7.60
2023-01-01T12:41:43.857Z,5.40
2023-01-01T12:42:43.821Z,6.20
2023-01-01T12:43:43.770Z,6.40
2023-01-01T12:44:43.729Z,5.00
2023-01-01T12:45:43.698Z,5.90
2023-01-01T12:46:43.707Z,6.20
2023-01-01T12:47:43.629Z,6.30
2023-01-01T12:48:43.591Z,5.30
2023-01-01T12:49:43.632Z,5.60
2023-01-01T12:50:47.870Z,4.80
2023-01-01T12:51:43.464Z,7.10
2023-01-01T12:52:43.440Z,5.10
2023-01-01T12:53:43.395Z,6.10
2023-01-01T12:54:43.349Z,4.90
2023-01-01T12:55:43.313Z,5.90
2023-01-01T12:56:43.292Z,5.70
2023-01-01T12:57:43.226Z,5.50
2023-01-01T12:58:43.205Z,4.70
2023-01-01T12:59:43.171Z,7.60
2023-01-01T13:00:43.125Z,7.10
2023-01-01T13:01:43.224Z,7.20
2023-01-01T13:02:43.165Z,4.90
2023-01-01T13:03:43.054Z,4.90
2023-01-01T13:04:42.958Z,6.00
2023-01-01T13:05:42.944Z,6.40
2023-01-01T13:06:42.881Z,6.00
2023-01-01T13:07:42.841Z,8.20
2023-01-01T13:08:42.802Z,6.60
2023-01-01T13:09:42.766Z,7.30
2023-01-01T13:10:42.731Z,6.40
2023-01-01T13:11:45.154Z,5.20
2023-01-01T13:12:42.652Z,6.80
2023-01-01T13:13:42.613Z,6.70
2023-01-01T13:14:42.573Z,6.40
2023-01-01T13:15:42.663Z,5.60